createdAt,value
2022-10-05T00:00:49.650Z,6.82
2022-10-05T00:03:17.565Z,6.95
2022-10-05T00:05:46.903Z,6.03
2022-10-05T00:08:18.690Z,5.88
2022-10-05T00:10:47.988Z,6.38
2022-10-05T00:13:17.453Z,5.85
2022-10-05T00:15:45.248Z,5.78
2022-10-05T00:18:18.085Z,5.80
2022-10-05T00:20:47.086Z,5.55
2022-10-05T00:23:19.915Z,5.85
2022-10-05T00:25:49.267Z,6.07
2022-10-05T00:28:22.973Z,5.95
2022-10-05T00:30:50.795Z,5.18
2022-10-05T00:33:18.509Z,5.68
2022-10-05T00:35:46.324Z,5.53
2022-10-05T00:38:14.064Z,5.55
2022-10-05T00:41:01.821Z,5.72
2022-10-05T00:43:49.403Z,5.78
2022-10-05T00:46:22.065Z,5.75
2022-10-05T00:49:03.459Z,5.82
2022-10-05T00:51:32.912Z,5.57
2022-10-05T00:54:21.752Z,5.78
2022-10-05T00:59:50.005Z,5.70
2022-10-05T01:02:26.534Z,5.53
2022-10-05T01:05:02.261Z,6.03
2022-10-05T01:07:39.621Z,5.82
2022-10-05T01:10:15.855Z,5.90
2022-10-05T01:12:54.515Z,5.78
2022-10-05T01:15:31.401Z,5.90
2022-10-05T01:18:06.917Z,6.80
2022-10-05T01:20:49.821Z,6.55
2022-10-05T01:26:17.124Z,6.18
2022-10-05T01:28:51.462Z,6.78
2022-10-05T01:31:27.176Z,6.88
2022-10-05T01:34:04.232Z,6.45
2022-10-05T01:36:39.003Z,6.95
2022-10-05T01:39:12.278Z,7.03
2022-10-05T01:41:49.057Z,7.25
2022-10-05T01:44:22.785Z,6.82
2022-10-05T01:46:58.936Z,7.00
2022-10-05T01:49:39.014Z,7.10
2022-10-05T01:52:22.414Z,6.70
2022-10-05T01:55:06.791Z,7.28
2022-10-05T01:57:45.369Z,7.13
2022-10-05T02:00:17.886Z,7.15
2022-10-05T02:02:49.827Z,7.13
2022-10-05T02:05:22.584Z,7.40
2022-10-05T02:07:55.314Z,7.57
2022-10-05T02:10:27.765Z,8.02
2022-10-05T02:13:00.391Z,7.68
2022-10-05T02:15:35.007Z,7.03
2022-10-05T02:18:08.793Z,7.38
2022-10-05T02:20:40.568Z,7.43
2022-10-05T02:23:13.517Z,7.43
2022-10-05T02:25:46.564Z,7.22
2022-10-05T02:28:20.355Z,7.32
2022-10-05T02:30:55.188Z,7.57
2022-10-05T02:33:29.022Z,7.30
2022-10-05T02:36:02.480Z,7.22
2022-10-05T02:38:41.400Z,7.47
2022-10-05T02:41:19.222Z,8.30
2022-10-05T02:43:54.565Z,7.82
2022-10-05T02:46:36.675Z,8.00
2022-10-05T02:49:18.528Z,7.78
2022-10-05T02:51:57.517Z,8.05
2022-10-05T02:54:40.464Z,7.85
2022-10-05T02:57:15.221Z,7.53
2022-10-05T02:59:54.803Z,8.25
2022-10-05T03:02:27.834Z,7.35
2022-10-05T03:05:03.466Z,7.20
2022-10-05T03:07:36.077Z,7.45
2022-10-05T03:10:12.642Z,8.15
2022-10-05T03:12:53.649Z,7.55
2022-10-05T03:15:49.964Z,7.57
2022-10-05T03:18:31.989Z,7.90
2022-10-05T03:21:14.027Z,8.25
2022-10-05T03:23:54.282Z,7.50
2022-10-05T03:26:37.917Z,7.15
2022-10-05T03:29:19.637Z,7.22
2022-10-05T03:31:52.388Z,7.57
2022-10-05T03:34:28.536Z,7.25
2022-10-05T03:37:04.854Z,6.65
2022-10-05T03:39:40.374Z,7.20
2022-10-05T03:42:21.081Z,7.03
2022-10-05T03:44:57.913Z,7.03
2022-10-05T03:47:32.937Z,7.30
2022-10-05T03:50:18.050Z,7.18
2022-10-05T03:52:51.913Z,6.78
2022-10-05T03:55:27.216Z,6.78
2022-10-05T03:57:59.764Z,6.38
2022-10-05T04:00:31.111Z,6.47
2022-10-05T04:03:08.637Z,6.28
2022-10-05T04:05:44.475Z,6.88
2022-10-05T04:08:21.634Z,6.78
2022-10-05T04:10:52.759Z,6.25
2022-10-05T04:13:29.352Z,5.90
2022-10-05T04:16:01.840Z,5.78
2022-10-05T04:18:35.114Z,5.95
2022-10-05T04:21:08.021Z,6.20
2022-10-05T04:23:45.538Z,5.85
2022-10-05T04:26:19.850Z,5.57
2022-10-05T04:28:55.476Z,5.80
2022-10-05T04:31:51.021Z,6.10
2022-10-05T04:34:37.935Z,5.82
2022-10-05T04:37:10.920Z,6.38
2022-10-05T04:39:46.647Z,6.10
2022-10-05T04:42:25.318Z,6.10
2022-10-05T04:45:07.318Z,5.72
2022-10-05T04:48:00.568Z,7.47
2022-10-05T04:50:41.313Z,6.20
2022-10-05T04:53:23.804Z,5.78
2022-10-05T04:55:57.349Z,6.55
2022-10-05T04:58:42.199Z,6.25
2022-10-05T05:01:24.887Z,6.20
2022-10-05T05:04:16.146Z,6.05
2022-10-05T05:06:52.243Z,5.53
2022-10-05T05:10:02.213Z,5.43
2022-10-05T05:12:39.743Z,5.18
2022-10-05T05:15:23.791Z,4.95
2022-10-05T05:18:11.605Z,5.03
2022-10-05T05:20:54.960Z,4.85
2022-10-05T05:23:35.677Z,4.53
2022-10-05T05:26:15.732Z,4.00
2022-10-05T05:28:51.614Z,3.92
2022-10-05T05:31:29.054Z,4.15
2022-10-05T05:34:06.345Z,4.13
2022-10-05T05:36:48.211Z,4.35
2022-10-05T05:39:25.677Z,4.35
2022-10-05T05:42:02.624Z,4.28
2022-10-05T05:44:38.941Z,4.10
2022-10-05T05:47:17.482Z,4.07
2022-10-05T05:50:06.948Z,4.50
2022-10-05T05:52:42.084Z,4.30
2022-10-05T05:55:18.201Z,5.05
2022-10-05T05:57:52.512Z,4.60
2022-10-05T06:00:24.186Z,5.07
2022-10-05T06:03:03.410Z,4.68
2022-10-05T06:05:34.973Z,5.18
2022-10-05T06:08:12.890Z,5.30
2022-10-05T06:10:46.194Z,6.05
2022-10-05T06:13:20.554Z,4.72
2022-10-05T06:15:54.152Z,5.28
2022-10-05T06:18:24.042Z,5.28
2022-10-05T06:21:02.298Z,5.75
2022-10-05T06:23:38.947Z,5.95
2022-10-05T06:26:16.219Z,5.60
2022-10-05T06:28:51.765Z,5.45
2022-10-05T06:31:32.451Z,5.53
2022-10-05T06:34:14.701Z,5.55
2022-10-05T06:36:49.627Z,5.47
2022-10-05T06:39:37.715Z,5.55
2022-10-05T06:42:26.625Z,5.78
2022-10-05T06:45:20.331Z,5.82
2022-10-05T06:48:05.748Z,5.55
2022-10-05T06:50:45.764Z,5.57
2022-10-05T06:53:53.780Z,5.40
2022-10-05T06:56:29.171Z,5.53
2022-10-05T06:59:05.173Z,5.25
2022-10-05T07:01:46.395Z,5.15
2022-10-05T07:04:36.750Z,5.53
2022-10-05T07:07:15.760Z,5.47
2022-10-05T07:09:58.094Z,5.35
2022-10-05T07:12:37.667Z,5.40
2022-10-05T07:15:30.639Z,5.35
2022-10-05T07:18:20.161Z,5.35
2022-10-05T07:20:54.283Z,5.25
2022-10-05T07:23:32.833Z,5.15
2022-10-05T07:26:07.274Z,5.15
2022-10-05T07:28:45.623Z,5.20
2022-10-05T07:31:22.146Z,5.05
2022-10-05T07:34:02.139Z,4.97
2022-10-05T07:36:55.204Z,4.65
2022-10-05T07:39:55.467Z,4.82
2022-10-05T07:42:30.992Z,4.85
2022-10-05T07:45:05.897Z,4.80
2022-10-05T07:47:39.481Z,4.25
2022-10-05T07:50:18.374Z,4.57
2022-10-05T07:52:54.929Z,4.70
2022-10-05T07:55:26.664Z,4.63
2022-10-05T07:58:06.708Z,4.22
2022-10-05T08:00:54.290Z,4.50
2022-10-05T08:03:32.124Z,4.25
2022-10-05T08:06:03.895Z,4.75
2022-10-05T08:08:41.046Z,4.82
2022-10-05T08:11:16.966Z,4.47
2022-10-05T08:13:52.643Z,4.47
2022-10-05T08:16:21.248Z,4.40
2022-10-05T08:18:58.229Z,4.40
2022-10-05T08:24:04.099Z,4.40
2022-10-05T08:26:39.934Z,4.43
2022-10-05T08:29:16.940Z,4.53
2022-10-05T08:34:31.158Z,4.07
2022-10-05T08:37:05.084Z,4.70
2022-10-05T08:39:40.088Z,4.55
2022-10-05T08:42:38.106Z,4.47
2022-10-05T08:45:52.874Z,4.32
2022-10-05T08:48:57.257Z,3.92
2022-10-05T08:51:53.432Z,4.32
2022-10-05T08:54:39.245Z,4.43
2022-10-05T08:57:33.746Z,4.55
2022-10-05T09:00:13.946Z,3.65
2022-10-05T09:03:11.548Z,4.03
2022-10-05T09:06:00.576Z,4.03
2022-10-05T09:08:56.481Z,4.28
2022-10-05T09:11:36.558Z,3.95
2022-10-05T09:14:23.508Z,3.78
2022-10-05T09:17:08.221Z,4.38
2022-10-05T09:20:11.082Z,3.85
2022-10-05T09:23:04.029Z,3.95
2022-10-05T09:25:44.187Z,3.38
2022-10-05T09:28:32.928Z,3.53
2022-10-05T09:31:42.100Z,3.55
2022-10-05T09:34:44.725Z,3.80
2022-10-05T09:37:26.503Z,3.70
2022-10-05T09:40:21.257Z,4.45
2022-10-05T09:43:10.213Z,4.43
2022-10-05T09:49:02.807Z,3.78
2022-10-05T09:52:16.463Z,3.60
2022-10-05T09:55:14.408Z,3.38
2022-10-05T09:58:20.318Z,3.28
2022-10-05T10:01:09.407Z,3.00
2022-10-05T10:04:08.047Z,3.30
2022-10-05T10:06:53.879Z,3.10
2022-10-05T10:09:38.482Z,2.88
2022-10-05T10:12:38.387Z,3.35
2022-10-05T10:15:27.993Z,3.25
2022-10-05T10:18:28.869Z,3.38
2022-10-05T10:23:51.525Z,3.47
2022-10-05T10:27:06.850Z,3.67
2022-10-05T10:29:46.463Z,3.30
2022-10-05T10:32:47.046Z,3.35
2022-10-05T10:35:27.064Z,4.22
2022-10-05T10:38:31.015Z,4.00
2022-10-05T10:41:31.389Z,3.65
2022-10-05T10:44:34.959Z,3.58
2022-10-05T10:47:39.326Z,3.72
2022-10-05T10:50:33.136Z,3.67
2022-10-05T10:53:12.381Z,3.95
2022-10-05T10:55:48.457Z,4.10
2022-10-05T10:58:52.546Z,3.95
2022-10-05T11:01:31.924Z,4.40
2022-10-05T11:04:40.342Z,4.05
2022-10-05T11:07:43.416Z,4.78
2022-10-05T11:10:49.900Z,4.03
2022-10-05T11:13:45.052Z,4.03
2022-10-05T11:16:42.697Z,4.15
2022-10-05T11:19:40.297Z,3.88
2022-10-05T11:22:27.630Z,4.03
2022-10-05T11:25:11.315Z,4.05
2022-10-05T11:28:00.922Z,3.83
2022-10-05T11:30:50.328Z,3.70
2022-10-05T11:33:52.991Z,3.70
2022-10-05T11:36:39.659Z,3.80
2022-10-05T11:39:38.695Z,3.53
2022-10-05T11:42:51.394Z,3.65
2022-10-05T11:45:27.193Z,3.78
2022-10-05T11:48:20.244Z,3.65
2022-10-05T11:51:05.150Z,3.35
2022-10-05T11:53:40.214Z,3.35
2022-10-05T11:56:20.144Z,3.35
2022-10-05T11:58:55.156Z,3.80
2022-10-05T12:01:34.581Z,3.72
2022-10-05T12:04:17.781Z,3.63
2022-10-05T12:07:08.818Z,3.40
2022-10-05T12:10:05.446Z,3.55
2022-10-05T12:12:40.424Z,3.53
2022-10-05T12:15:18.384Z,3.90
2022-10-05T12:17:54.525Z,3.50
2022-10-05T12:20:29.349Z,3.22
2022-10-05T12:23:04.385Z,3.30
2022-10-05T12:25:35.284Z,3.85
2022-10-05T12:28:07.200Z,3.10
2022-10-05T12:31:00.228Z,3.15
2022-10-05T12:33:35.429Z,3.15
2022-10-05T12:36:08.899Z,3.40
2022-10-05T12:38:42.696Z,3.20
2022-10-05T12:41:19.790Z,2.83
2022-10-05T12:43:59.258Z,3.25
2022-10-05T12:46:35.887Z,3.00
2022-10-05T12:49:27.881Z,2.90
2022-10-05T12:51:59.333Z,2.60
2022-10-05T12:54:40.128Z,2.75
2022-10-05T12:57:20.274Z,2.72
2022-10-05T12:59:54.729Z,2.65
2022-10-05T13:02:31.494Z,3.10
2022-10-05T13:05:12.638Z,2.90
2022-10-05T13:07:59.647Z,2.92
2022-10-05T13:10:36.076Z,3.40
2022-10-05T13:13:30.017Z,3.28
2022-10-05T13:16:04.754Z,3.22
2022-10-05T13:18:44.252Z,3.05
2022-10-05T13:21:20.373Z,3.53
2022-10-05T13:23:59.488Z,3.55
2022-10-05T13:26:32.776Z,3.40
2022-10-05T13:29:10.542Z,2.85
2022-10-05T13:31:44.016Z,2.75
2022-10-05T13:34:22.293Z,2.70
2022-10-05T13:37:02.298Z,2.97
2022-10-05T13:39:50.505Z,2.90
2022-10-05T13:42:26.806Z,2.63
2022-10-05T13:45:00.890Z,3.20
2022-10-05T13:47:35.042Z,2.65
2022-10-05T13:50:06.715Z,2.70
2022-10-05T13:52:48.481Z,3.00
2022-10-05T13:55:29.717Z,2.78
2022-10-05T13:58:06.084Z,3.03
2022-10-05T14:00:42.902Z,2.90
2022-10-05T14:03:27.426Z,2.95
2022-10-05T14:05:57.939Z,2.80
2022-10-05T14:08:33.582Z,2.60
2022-10-05T14:11:20.571Z,2.65
2022-10-05T14:13:50.600Z,2.42
2022-10-05T14:16:23.453Z,2.55
2022-10-05T14:18:54.930Z,2.90
2022-10-05T14:21:25.022Z,3.08
2022-10-05T14:23:57.188Z,2.90
2022-10-05T14:26:35.935Z,2.33
2022-10-05T14:29:18.133Z,2.10
2022-10-05T14:31:52.246Z,2.33
2022-10-05T14:34:35.580Z,2.20
2022-10-05T14:37:19.047Z,2.63
2022-10-05T14:39:50.028Z,2.30
2022-10-05T14:42:20.556Z,2.20
2022-10-05T14:44:59.995Z,2.10
2022-10-05T14:47:31.226Z,2.63
2022-10-05T14:50:16.742Z,2.40
2022-10-05T14:53:00.753Z,2.20
2022-10-05T14:55:50.600Z,2.53
2022-10-05T14:58:35.016Z,2.42
2022-10-05T15:01:13.694Z,2.53
2022-10-05T15:03:51.805Z,2.22
2022-10-05T15:06:28.110Z,2.58
2022-10-05T15:09:20.989Z,2.50
2022-10-05T15:11:54.198Z,2.28
2022-10-05T15:14:25.704Z,2.30
2022-10-05T15:16:55.452Z,2.30
2022-10-05T15:19:28.369Z,2.80
2022-10-05T15:22:18.664Z,2.33
2022-10-05T15:24:57.702Z,2.30
2022-10-05T15:27:32.694Z,3.03
2022-10-05T15:30:09.416Z,2.50
2022-10-05T15:32:51.919Z,2.80
2022-10-05T15:35:36.704Z,2.30
2022-10-05T15:38:17.780Z,2.55
2022-10-05T15:40:50.302Z,2.65
2022-10-05T15:43:22.071Z,2.63
2022-10-05T15:45:58.163Z,2.55
2022-10-05T15:48:37.417Z,2.70
2022-10-05T15:51:18.634Z,3.10
2022-10-05T15:54:15.726Z,2.53
2022-10-05T15:56:48.937Z,2.60
2022-10-05T15:59:28.433Z,2.75
2022-10-05T16:02:01.458Z,3.00
2022-10-05T16:04:40.740Z,2.80
2022-10-05T16:07:35.856Z,2.60
2022-10-05T16:10:13.548Z,2.47
2022-10-05T16:12:54.698Z,2.13
2022-10-05T16:15:33.442Z,2.20
2022-10-05T16:18:15.466Z,2.10
2022-10-05T16:20:51.077Z,2.30
2022-10-05T16:23:28.094Z,2.45
2022-10-05T16:26:11.580Z,2.70
2022-10-05T16:28:47.658Z,2.33
2022-10-05T16:31:22.066Z,2.20
2022-10-05T16:34:01.557Z,2.63
2022-10-05T16:36:48.493Z,2.35
2022-10-05T16:39:24.360Z,2.40
2022-10-05T16:42:00.987Z,2.13
2022-10-05T16:44:38.791Z,2.20
2022-10-05T16:47:33.415Z,2.40
2022-10-05T16:50:12.298Z,2.30
2022-10-05T16:52:43.413Z,2.38
2022-10-05T16:55:27.965Z,2.20
2022-10-05T16:58:06.762Z,2.38
2022-10-05T17:00:51.910Z,2.40
2022-10-05T17:03:30.501Z,2.70
2022-10-05T17:06:30.067Z,2.30
2022-10-05T17:09:18.972Z,2.33
2022-10-05T17:14:39.723Z,2.40
2022-10-05T17:17:24.656Z,2.22
2022-10-05T17:20:07.030Z,2.42
2022-10-05T17:22:39.841Z,2.50
2022-10-05T17:25:18.289Z,2.35
2022-10-05T17:27:54.810Z,2.47
2022-10-05T17:30:47.318Z,2.60
2022-10-05T17:33:25.745Z,2.65
2022-10-05T17:36:12.856Z,2.58
2022-10-05T17:38:50.153Z,2.83
2022-10-05T17:41:23.929Z,2.75
2022-10-05T17:44:19.293Z,2.83
2022-10-05T17:46:49.340Z,2.85
2022-10-05T17:49:46.793Z,2.60
2022-10-05T17:52:44.977Z,3.03
2022-10-05T17:55:30.001Z,2.80
2022-10-05T17:58:00.462Z,2.63
2022-10-05T18:00:41.916Z,2.83
2022-10-05T18:03:35.064Z,2.60
2022-10-05T18:06:33.213Z,2.92
2022-10-05T18:09:28.777Z,3.10
2022-10-05T18:12:42.386Z,2.85
2022-10-05T18:15:46.050Z,2.78
2022-10-05T18:18:54.613Z,2.78
2022-10-05T18:21:37.951Z,2.63
2022-10-05T18:24:45.776Z,3.13
2022-10-05T18:27:39.261Z,2.90
2022-10-05T18:30:18.782Z,3.00
2022-10-05T18:33:09.653Z,2.95
2022-10-05T18:35:50.761Z,2.75
2022-10-05T18:38:31.661Z,2.88
2022-10-05T18:41:04.761Z,2.78
2022-10-05T18:43:40.880Z,2.80
2022-10-05T18:46:22.273Z,2.88
2022-10-05T18:49:03.430Z,2.80
2022-10-05T18:51:41.507Z,2.70
2022-10-05T18:54:27.160Z,2.60
2022-10-05T18:56:56.329Z,2.95
2022-10-05T18:59:39.072Z,2.70
2022-10-05T19:02:24.494Z,3.08
2022-10-05T19:05:04.609Z,2.92
2022-10-05T19:07:44.708Z,3.00
2022-10-05T19:10:23.015Z,2.88
2022-10-05T19:13:00.356Z,2.72
2022-10-05T19:15:36.940Z,2.80
2022-10-05T19:18:28.807Z,2.60
2022-10-05T19:21:03.075Z,2.60
2022-10-05T19:23:53.031Z,3.00
2022-10-05T19:26:36.866Z,2.70
2022-10-05T19:29:15.776Z,3.28
2022-10-05T19:31:49.284Z,3.10
2022-10-05T19:34:30.462Z,3.00
2022-10-05T19:37:07.976Z,2.75
2022-10-05T19:39:46.034Z,3.15
2022-10-05T19:42:31.505Z,2.72
2022-10-05T19:45:13.760Z,2.88
2022-10-05T19:47:55.480Z,2.78
2022-10-05T19:50:32.803Z,2.10
2022-10-05T19:53:12.532Z,1.70
2022-10-05T19:55:42.298Z,1.00
2022-10-05T19:58:22.551Z,1.00
2022-10-05T20:00:57.341Z,0.90
2022-10-05T20:03:30.221Z,0.82
2022-10-05T20:05:59.821Z,0.90
2022-10-05T20:08:31.847Z,0.82
2022-10-05T20:11:14.066Z,0.80
2022-10-05T20:13:43.750Z,0.80
2022-10-05T20:16:39.365Z,1.00
2022-10-05T20:19:44.747Z,0.80
2022-10-05T20:22:31.482Z,0.93
2022-10-05T20:25:01.199Z,0.82
2022-10-05T20:27:47.002Z,0.90
2022-10-05T20:30:16.714Z,0.88
2022-10-05T20:32:48.491Z,0.90
2022-10-05T20:35:16.783Z,0.93
2022-10-05T20:37:44.577Z,0.90
2022-10-05T20:40:12.893Z,0.90
2022-10-05T20:42:40.620Z,1.10
2022-10-05T20:45:09.510Z,1.00
2022-10-05T20:47:38.193Z,1.00
2022-10-05T20:50:09.401Z,0.90
2022-10-05T20:52:38.094Z,0.95
2022-10-05T20:55:07.170Z,1.20
2022-10-05T20:57:35.081Z,1.00
2022-10-05T21:00:02.933Z,0.95
2022-10-05T21:02:30.718Z,1.10
2022-10-05T21:04:58.540Z,1.30
2022-10-05T21:07:27.649Z,1.50
2022-10-05T21:09:55.719Z,1.30
2022-10-05T21:12:23.514Z,1.00
2022-10-05T21:14:52.654Z,0.73
2022-10-05T21:17:20.863Z,0.70
2022-10-05T21:19:48.653Z,0.70
2022-10-05T21:22:16.382Z,0.90
2022-10-05T21:24:45.710Z,0.80
2022-10-05T21:27:13.654Z,0.80
2022-10-05T21:29:42.472Z,0.90
2022-10-05T21:32:11.575Z,0.77
2022-10-05T21:34:40.158Z,0.63
2022-10-05T21:37:08.001Z,0.70
2022-10-05T21:39:36.606Z,0.70
2022-10-05T21:42:05.983Z,0.90
2022-10-05T21:44:33.704Z,0.85
2022-10-05T21:47:01.889Z,0.80
2022-10-05T21:49:29.757Z,0.65
2022-10-05T21:51:57.979Z,0.85
2022-10-05T21:54:25.864Z,1.02
2022-10-05T21:56:56.682Z,0.80
2022-10-05T21:59:30.259Z,0.80
2022-10-05T22:01:58.360Z,0.90
2022-10-05T22:04:26.187Z,0.93
2022-10-05T22:06:55.021Z,0.95
2022-10-05T22:09:23.020Z,0.88
2022-10-05T22:11:50.732Z,0.70
2022-10-05T22:14:18.509Z,0.70
2022-10-05T22:16:47.761Z,0.80
2022-10-05T22:19:18.543Z,0.80
2022-10-05T22:21:46.319Z,0.90
2022-10-05T22:24:14.046Z,0.82
2022-10-05T22:26:44.693Z,0.82
2022-10-05T22:29:12.709Z,0.80
2022-10-05T22:31:40.692Z,0.80
2022-10-05T22:34:09.822Z,1.00
2022-10-05T22:36:38.274Z,0.90
2022-10-05T22:39:06.114Z,0.98
2022-10-05T22:41:33.854Z,1.00
2022-10-05T22:44:02.689Z,1.10
2022-10-05T22:46:30.495Z,0.90
2022-10-05T22:48:58.341Z,1.27
2022-10-05T22:51:27.379Z,1.55
2022-10-05T22:53:55.074Z,1.20
2022-10-05T22:56:22.810Z,1.10
2022-10-05T22:58:51.011Z,1.30
2022-10-05T23:01:20.146Z,1.20
2022-10-05T23:03:48.744Z,1.20
2022-10-05T23:06:18.163Z,1.35
2022-10-05T23:08:47.992Z,1.20
2022-10-05T23:11:17.930Z,1.63
2022-10-05T23:13:45.743Z,1.30
2022-10-05T23:16:16.069Z,1.33
2022-10-05T23:18:44.210Z,1.25
2022-10-05T23:21:12.589Z,1.52
2022-10-05T23:23:41.882Z,1.40
2022-10-05T23:26:12.437Z,1.45
2022-10-05T23:28:42.983Z,1.70
2022-10-05T23:31:10.868Z,1.55
2022-10-05T23:33:38.675Z,1.40
2022-10-05T23:36:08.730Z,1.33
2022-10-05T23:38:37.558Z,1.50
2022-10-05T23:41:06.050Z,1.83
2022-10-05T23:43:35.562Z,1.33
2022-10-05T23:46:04.777Z,1.50
2022-10-05T23:48:32.846Z,1.17
2022-10-05T23:51:01.116Z,1.40
2022-10-05T23:53:28.863Z,1.50
2022-10-05T23:55:56.802Z,1.80
2022-10-05T23:58:24.892Z,1.40
